This is the latest recevied weather packets stored in our database for station/object CA4LJZ-10. If no packets are shown the sender has not sent any weather packets the latest 10 day(s).
| Time | Temp. | Humidity | Pressure | Rain* | Wind** | Luminosity | Snow |
|---|---|---|---|---|---|---|---|
| 1777750462 | 29.44° C | 24% | 952.6 hPa | - | - | - | - |
| 1777749600 | 28.33° C | 23% | 952.4 hPa | - | - | - | - |
| 1777749561 | 28.33° C | 23% | 952.4 hPa | - | - | - | - |
| 1777748660 | 28.89° C | 24% | 952.3 hPa | - | - | - | - |
| 1777747760 | 28.89° C | 24% | 952.3 hPa | - | - | - | - |
| 1777746856 | 28.89° C | 26% | 952.4 hPa | - | - | - | - |
| 1777745956 | 28.89° C | 22% | 952.4 hPa | - | - | - | - |
| 1777745055 | 37.22° C | 16% | 952.6 hPa | - | - | - | - |
| 1777744154 | 39.44° C | 16% | 952.7 hPa | - | - | - | - |
| 1777743253 | 42.78° C | 16% | 952.9 hPa | - | - | - | - |
| 1777742351 | 46.11° C | 14% | 953.1 hPa | - | - | - | - |
| 1777741450 | 44.44° C | 16% | 953.2 hPa | - | - | - | - |
| 1777740549 | 45.56° C | 14% | 953.4 hPa | - | - | - | - |
| 1777739649 | 46.67° C | 15% | 953.7 hPa | - | - | - | - |
| 1777738748 | 50° C | 14% | 953.9 hPa | - | - | - | - |
| 1777737871 | 42.22° C | 15% | 954 hPa | - | - | - | - |
| 1777736970 | 45.56° C | 15% | 954.4 hPa | - | - | - | - |
| 1777736069 | 44.44° C | 16% | 954.6 hPa | - | - | - | - |
| 1777735168 | 43.33° C | 17% | 954.7 hPa | - | - | - | - |
| 1777734266 | 41.11° C | 17% | 954.8 hPa | - | - | - | - |
| 1777733365 | 41.67° C | 19% | 955.2 hPa | - | - | - | - |
| 1777732560 | 34.44° C | 24% | 955.2 hPa | - | - | - | - |
| 1777732464 | 34.44° C | 24% | 955.2 hPa | - | - | - | - |
| 1777731563 | 40° C | 19% | 955.4 hPa | - | - | - | - |
| 1777730662 | 35.56° C | 24% | 955.6 hPa | - | - | - | - |
* Rain since midnight (hover to see other rain measurements)
** Current wind speed in m/s (hover to see current wind gust speed)